sensor_id;sensor_type;location;lat;lon;timestamp;P1;durP1;ratioP1;P2;durP2;ratioP2
57643;SDS011;43474;46.510;6.686;2023-05-23T00:01:29;587.13;;;543.33;;
57643;SDS011;43474;46.510;6.686;2023-05-23T00:03:56;617.05;;;570.72;;
57643;SDS011;43474;46.510;6.686;2023-05-23T00:06:22;619.88;;;574.15;;
57643;SDS011;43474;46.510;6.686;2023-05-23T00:08:48;634.72;;;587.60;;
57643;SDS011;43474;46.510;6.686;2023-05-23T00:11:14;665.05;;;614.08;;
57643;SDS011;43474;46.510;6.686;2023-05-23T00:13:41;626.45;;;579.72;;
57643;SDS011;43474;46.510;6.686;2023-05-23T00:16:07;619.45;;;573.47;;
57643;SDS011;43474;46.510;6.686;2023-05-23T00:18:34;640.45;;;593.10;;
57643;SDS011;43474;46.510;6.686;2023-05-23T00:21:00;629.75;;;582.33;;
57643;SDS011;43474;46.510;6.686;2023-05-23T00:23:26;643.75;;;595.28;;
57643;SDS011;43474;46.510;6.686;2023-05-23T00:25:56;610.95;;;565.53;;
57643;SDS011;43474;46.510;6.686;2023-05-23T00:28:22;621.67;;;575.83;;
57643;SDS011;43474;46.510;6.686;2023-05-23T00:30:48;638.20;;;592.15;;
57643;SDS011;43474;46.510;6.686;2023-05-23T00:33:15;654.75;;;605.55;;
57643;SDS011;43474;46.510;6.686;2023-05-23T00:35:41;642.67;;;595.38;;
57643;SDS011;43474;46.510;6.686;2023-05-23T00:38:07;656.83;;;608.60;;
57643;SDS011;43474;46.510;6.686;2023-05-23T00:40:33;629.72;;;583.85;;
57643;SDS011;43474;46.510;6.686;2023-05-23T00:42:59;649.13;;;601.05;;
57643;SDS011;43474;46.510;6.686;2023-05-23T00:45:25;639.90;;;592.95;;
57643;SDS011;43474;46.510;6.686;2023-05-23T00:47:51;630.95;;;584.78;;
57643;SDS011;43474;46.510;6.686;2023-05-23T00:50:18;614.75;;;570.83;;
57643;SDS011;43474;46.510;6.686;2023-05-23T00:52:45;633.65;;;588.42;;
57643;SDS011;43474;46.510;6.686;2023-05-23T00:55:12;620.42;;;574.95;;
57643;SDS011;43474;46.510;6.686;2023-05-23T00:57:38;628.20;;;583.28;;
57643;SDS011;43474;46.510;6.686;2023-05-23T01:00:14;610.58;;;566.67;;
57643;SDS011;43474;46.510;6.686;2023-05-23T01:02:44;614.53;;;570.83;;
57643;SDS011;43474;46.510;6.686;2023-05-23T01:05:12;602.83;;;560.25;;
57643;SDS011;43474;46.510;6.686;2023-05-23T01:07:45;612.93;;;569.13;;
57643;SDS011;43474;46.510;6.686;2023-05-23T01:10:12;601.83;;;559.97;;
57643;SDS011;43474;46.510;6.686;2023-05-23T01:15:14;610.13;;;567.13;;
57643;SDS011;43474;46.510;6.686;2023-05-23T01:18:15;623.95;;;579.50;;
57643;SDS011;43474;46.510;6.686;2023-05-23T01:20:48;587.28;;;546.65;;
57643;SDS011;43474;46.510;6.686;2023-05-23T01:26:17;625.47;;;580.22;;
57643;SDS011;43474;46.510;6.686;2023-05-23T01:28:47;635.92;;;590.50;;
57643;SDS011;43474;46.510;6.686;2023-05-23T01:31:16;649.95;;;602.45;;
57643;SDS011;43474;46.510;6.686;2023-05-23T01:33:42;672.28;;;622.67;;
57643;SDS011;43474;46.510;6.686;2023-05-23T01:36:08;666.65;;;616.97;;
57643;SDS011;43474;46.510;6.686;2023-05-23T01:38:37;670.05;;;620.38;;
57643;SDS011;43474;46.510;6.686;2023-05-23T01:41:03;671.80;;;621.72;;
57643;SDS011;43474;46.510;6.686;2023-05-23T01:43:28;671.47;;;622.13;;
57643;SDS011;43474;46.510;6.686;2023-05-23T01:45:54;673.78;;;623.58;;
57643;SDS011;43474;46.510;6.686;2023-05-23T01:48:21;685.38;;;634.75;;
57643;SDS011;43474;46.510;6.686;2023-05-23T01:50:50;675.70;;;625.70;;
57643;SDS011;43474;46.510;6.686;2023-05-23T01:53:18;674.60;;;625.15;;
57643;SDS011;43474;46.510;6.686;2023-05-23T01:55:45;636.67;;;591.60;;
57643;SDS011;43474;46.510;6.686;2023-05-23T01:58:11;674.25;;;625.08;;
57643;SDS011;43474;46.510;6.686;2023-05-23T02:00:37;663.38;;;615.55;;
57643;SDS011;43474;46.510;6.686;2023-05-23T02:03:03;638.22;;;593.42;;
57643;SDS011;43474;46.510;6.686;2023-05-23T02:05:28;629.47;;;585.30;;
57643;SDS011;43474;46.510;6.686;2023-05-23T02:07:54;638.75;;;592.83;;
57643;SDS011;43474;46.510;6.686;2023-05-23T02:10:21;645.90;;;599.78;;
57643;SDS011;43474;46.510;6.686;2023-05-23T02:12:46;640.65;;;595.35;;
57643;SDS011;43474;46.510;6.686;2023-05-23T02:15:12;650.60;;;603.88;;
57643;SDS011;43474;46.510;6.686;2023-05-23T02:17:38;641.53;;;594.58;;
57643;SDS011;43474;46.510;6.686;2023-05-23T02:20:05;628.28;;;583.55;;
57643;SDS011;43474;46.510;6.686;2023-05-23T02:22:32;651.13;;;604.88;;
57643;SDS011;43474;46.510;6.686;2023-05-23T02:24:57;624.17;;;579.85;;
57643;SDS011;43474;46.510;6.686;2023-05-23T02:27:23;621.13;;;578.13;;
57643;SDS011;43474;46.510;6.686;2023-05-23T02:29:48;612.58;;;569.70;;
57643;SDS011;43474;46.510;6.686;2023-05-23T02:32:14;626.35;;;582.85;;
57643;SDS011;43474;46.510;6.686;2023-05-23T02:34:39;607.67;;;565.50;;
57643;SDS011;43474;46.510;6.686;2023-05-23T02:37:06;621.58;;;578.47;;
57643;SDS011;43474;46.510;6.686;2023-05-23T02:42:00;603.28;;;561.75;;
57643;SDS011;43474;46.510;6.686;2023-05-23T02:44:26;612.38;;;569.92;;
57643;SDS011;43474;46.510;6.686;2023-05-23T02:46:51;599.13;;;556.85;;
57643;SDS011;43474;46.510;6.686;2023-05-23T02:49:17;618.72;;;574.65;;
57643;SDS011;43474;46.510;6.686;2023-05-23T02:51:42;610.50;;;567.00;;
57643;SDS011;43474;46.510;6.686;2023-05-23T02:54:08;594.05;;;551.92;;
57643;SDS011;43474;46.510;6.686;2023-05-23T02:56:33;589.30;;;547.97;;
57643;SDS011;43474;46.510;6.686;2023-05-23T02:58:59;584.53;;;543.70;;
57643;SDS011;43474;46.510;6.686;2023-05-23T03:01:25;573.08;;;533.92;;
57643;SDS011;43474;46.510;6.686;2023-05-23T03:03:53;564.40;;;525.60;;
57643;SDS011;43474;46.510;6.686;2023-05-23T03:06:18;562.15;;;523.15;;
57643;SDS011;43474;46.510;6.686;2023-05-23T03:08:46;572.88;;;532.60;;
57643;SDS011;43474;46.510;6.686;2023-05-23T03:11:12;573.75;;;533.00;;
57643;SDS011;43474;46.510;6.686;2023-05-23T03:13:37;550.80;;;513.67;;
57643;SDS011;43474;46.510;6.686;2023-05-23T03:16:03;582.70;;;542.53;;
57643;SDS011;43474;46.510;6.686;2023-05-23T03:18:28;572.70;;;532.72;;
57643;SDS011;43474;46.510;6.686;2023-05-23T03:20:54;562.45;;;523.63;;
57643;SDS011;43474;46.510;6.686;2023-05-23T03:23:20;549.78;;;512.05;;
57643;SDS011;43474;46.510;6.686;2023-05-23T03:25:45;550.00;;;511.73;;
57643;SDS011;43474;46.510;6.686;2023-05-23T03:28:11;559.10;;;519.67;;
57643;SDS011;43474;46.510;6.686;2023-05-23T03:30:37;573.45;;;533.83;;
57643;SDS011;43474;46.510;6.686;2023-05-23T03:33:02;537.30;;;499.70;;
57643;SDS011;43474;46.510;6.686;2023-05-23T03:35:28;541.58;;;505.02;;
57643;SDS011;43474;46.510;6.686;2023-05-23T03:37:54;530.97;;;495.30;;
57643;SDS011;43474;46.510;6.686;2023-05-23T03:40:20;539.53;;;502.20;;
57643;SDS011;43474;46.510;6.686;2023-05-23T03:42:47;538.72;;;502.05;;
57643;SDS011;43474;46.510;6.686;2023-05-23T03:45:13;543.63;;;506.52;;
57643;SDS011;43474;46.510;6.686;2023-05-23T03:47:38;560.25;;;521.88;;
57643;SDS011;43474;46.510;6.686;2023-05-23T03:50:04;558.03;;;520.10;;
57643;SDS011;43474;46.510;6.686;2023-05-23T03:52:30;560.83;;;523.30;;
57643;SDS011;43474;46.510;6.686;2023-05-23T03:54:56;562.53;;;524.10;;
57643;SDS011;43474;46.510;6.686;2023-05-23T03:57:21;578.95;;;540.38;;
57643;SDS011;43474;46.510;6.686;2023-05-23T03:59:47;564.15;;;525.60;;
57643;SDS011;43474;46.510;6.686;2023-05-23T04:02:13;575.67;;;535.40;;
57643;SDS011;43474;46.510;6.686;2023-05-23T04:04:38;588.53;;;546.55;;
57643;SDS011;43474;46.510;6.686;2023-05-23T04:07:05;578.25;;;537.38;;
57643;SDS011;43474;46.510;6.686;2023-05-23T04:09:31;616.30;;;572.53;;
57643;SDS011;43474;46.510;6.686;2023-05-23T04:11:56;611.65;;;567.50;;
57643;SDS011;43474;46.510;6.686;2023-05-23T04:14:22;601.30;;;559.38;;
57643;SDS011;43474;46.510;6.686;2023-05-23T04:16:51;599.38;;;557.20;;
57643;SDS011;43474;46.510;6.686;2023-05-23T04:19:17;614.22;;;569.53;;
57643;SDS011;43474;46.510;6.686;2023-05-23T04:21:43;634.20;;;586.80;;
57643;SDS011;43474;46.510;6.686;2023-05-23T04:24:08;644.90;;;596.75;;
57643;SDS011;43474;46.510;6.686;2023-05-23T04:26:34;660.75;;;612.55;;
57643;SDS011;43474;46.510;6.686;2023-05-23T04:29:01;653.00;;;606.25;;
57643;SDS011;43474;46.510;6.686;2023-05-23T04:31:27;654.60;;;606.85;;
57643;SDS011;43474;46.510;6.686;2023-05-23T04:33:53;667.90;;;619.33;;
57643;SDS011;43474;46.510;6.686;2023-05-23T04:36:18;647.10;;;600.65;;
57643;SDS011;43474;46.510;6.686;2023-05-23T04:38:44;650.10;;;603.00;;
57643;SDS011;43474;46.510;6.686;2023-05-23T04:41:10;629.42;;;584.28;;
57643;SDS011;43474;46.510;6.686;2023-05-23T04:43:35;664.08;;;615.40;;
57643;SDS011;43474;46.510;6.686;2023-05-23T04:46:07;639.83;;;593.90;;
57643;SDS011;43474;46.510;6.686;2023-05-23T04:48:34;652.72;;;605.17;;
57643;SDS011;43474;46.510;6.686;2023-05-23T04:51:01;649.97;;;603.00;;
57643;SDS011;43474;46.510;6.686;2023-05-23T04:53:36;649.45;;;601.83;;
57643;SDS011;43474;46.510;6.686;2023-05-23T04:56:01;654.08;;;606.22;;
57643;SDS011;43474;46.510;6.686;2023-05-23T04:58:27;667.22;;;618.67;;
57643;SDS011;43474;46.510;6.686;2023-05-23T05:00:52;672.17;;;622.13;;
57643;SDS011;43474;46.510;6.686;2023-05-23T05:03:18;684.53;;;632.45;;
57643;SDS011;43474;46.510;6.686;2023-05-23T05:05:43;695.10;;;643.65;;
57643;SDS011;43474;46.510;6.686;2023-05-23T05:08:09;687.17;;;635.00;;
57643;SDS011;43474;46.510;6.686;2023-05-23T05:10:35;715.20;;;659.63;;
57643;SDS011;43474;46.510;6.686;2023-05-23T05:13:01;679.83;;;627.45;;
57643;SDS011;43474;46.510;6.686;2023-05-23T05:15:26;699.40;;;645.22;;
57643;SDS011;43474;46.510;6.686;2023-05-23T05:17:52;696.53;;;643.20;;
57643;SDS011;43474;46.510;6.686;2023-05-23T05:20:18;716.65;;;659.88;;
57643;SDS011;43474;46.510;6.686;2023-05-23T05:22:44;713.20;;;655.95;;
57643;SDS011;43474;46.510;6.686;2023-05-23T05:25:10;725.78;;;666.88;;
57643;SDS011;43474;46.510;6.686;2023-05-23T05:27:36;751.08;;;689.13;;
57643;SDS011;43474;46.510;6.686;2023-05-23T05:30:05;767.38;;;703.05;;
57643;SDS011;43474;46.510;6.686;2023-05-23T05:32:31;764.15;;;699.30;;
57643;SDS011;43474;46.510;6.686;2023-05-23T05:34:58;795.47;;;726.08;;
57643;SDS011;43474;46.510;6.686;2023-05-23T05:37:24;784.08;;;716.20;;
57643;SDS011;43474;46.510;6.686;2023-05-23T05:39:50;797.00;;;728.03;;
57643;SDS011;43474;46.510;6.686;2023-05-23T05:42:17;774.40;;;709.25;;
57643;SDS011;43474;46.510;6.686;2023-05-23T05:44:43;757.53;;;694.85;;
57643;SDS011;43474;46.510;6.686;2023-05-23T05:47:08;785.63;;;718.22;;
57643;SDS011;43474;46.510;6.686;2023-05-23T05:49:34;803.15;;;730.50;;
57643;SDS011;43474;46.510;6.686;2023-05-23T05:52:00;792.78;;;720.15;;
57643;SDS011;43474;46.510;6.686;2023-05-23T05:54:25;761.53;;;694.97;;
57643;SDS011;43474;46.510;6.686;2023-05-23T05:56:51;747.08;;;683.35;;
57643;SDS011;43474;46.510;6.686;2023-05-23T05:59:16;775.28;;;710.40;;
57643;SDS011;43474;46.510;6.686;2023-05-23T06:01:42;802.50;;;732.83;;
57643;SDS011;43474;46.510;6.686;2023-05-23T06:04:09;795.60;;;729.42;;
57643;SDS011;43474;46.510;6.686;2023-05-23T06:06:35;761.65;;;702.03;;
57643;SDS011;43474;46.510;6.686;2023-05-23T06:09:00;837.55;;;772.53;;
57643;SDS011;43474;46.510;6.686;2023-05-23T06:11:26;862.60;;;792.90;;
57643;SDS011;43474;46.510;6.686;2023-05-23T06:13:51;923.58;;;847.05;;
57643;SDS011;43474;46.510;6.686;2023-05-23T06:16:17;902.35;;;829.42;;
57643;SDS011;43474;46.510;6.686;2023-05-23T06:18:43;809.92;;;752.50;;
57643;SDS011;43474;46.510;6.686;2023-05-23T06:21:08;824.70;;;763.70;;
57643;SDS011;43474;46.510;6.686;2023-05-23T06:23:34;816.38;;;758.47;;
57643;SDS011;43474;46.510;6.686;2023-05-23T06:26:00;780.70;;;726.65;;
57643;SDS011;43474;46.510;6.686;2023-05-23T06:28:25;819.28;;;762.38;;
57643;SDS011;43474;46.510;6.686;2023-05-23T06:30:51;764.83;;;712.35;;
57643;SDS011;43474;46.510;6.686;2023-05-23T06:33:17;813.58;;;754.72;;
57643;SDS011;43474;46.510;6.686;2023-05-23T06:35:42;808.53;;;750.45;;
57643;SDS011;43474;46.510;6.686;2023-05-23T06:38:08;810.95;;;750.60;;
57643;SDS011;43474;46.510;6.686;2023-05-23T06:40:33;717.20;;;667.20;;
57643;SDS011;43474;46.510;6.686;2023-05-23T06:42:59;740.42;;;690.92;;
57643;SDS011;43474;46.510;6.686;2023-05-23T06:45:25;722.35;;;673.50;;
57643;SDS011;43474;46.510;6.686;2023-05-23T06:47:50;800.17;;;743.22;;
57643;SDS011;43474;46.510;6.686;2023-05-23T06:50:16;748.25;;;697.47;;
57643;SDS011;43474;46.510;6.686;2023-05-23T06:52:44;802.40;;;745.58;;
57643;SDS011;43474;46.510;6.686;2023-05-23T06:55:11;803.72;;;744.72;;
57643;SDS011;43474;46.510;6.686;2023-05-23T06:57:39;803.35;;;744.50;;
57643;SDS011;43474;46.510;6.686;2023-05-23T07:00:05;895.03;;;822.80;;
57643;SDS011;43474;46.510;6.686;2023-05-23T07:02:31;811.10;;;752.55;;
57643;SDS011;43474;46.510;6.686;2023-05-23T07:04:57;873.78;;;804.42;;
57643;SDS011;43474;46.510;6.686;2023-05-23T07:07:22;898.28;;;826.95;;
57643;SDS011;43474;46.510;6.686;2023-05-23T07:09:48;900.60;;;828.30;;
57643;SDS011;43474;46.510;6.686;2023-05-23T07:12:17;778.45;;;721.15;;
57643;SDS011;43474;46.510;6.686;2023-05-23T07:14:42;813.20;;;751.78;;
57643;SDS011;43474;46.510;6.686;2023-05-23T07:17:08;880.58;;;808.92;;
57643;SDS011;43474;46.510;6.686;2023-05-23T07:19:34;929.20;;;852.50;;
57643;SDS011;43474;46.510;6.686;2023-05-23T07:21:59;781.10;;;724.78;;
57643;SDS011;43474;46.510;6.686;2023-05-23T07:24:25;875.30;;;804.22;;
57643;SDS011;43474;46.510;6.686;2023-05-23T07:26:51;955.53;;;873.88;;
57643;SDS011;43474;46.510;6.686;2023-05-23T07:29:17;813.88;;;753.22;;
57643;SDS011;43474;46.510;6.686;2023-05-23T07:31:42;851.00;;;786.13;;
57643;SDS011;43474;46.510;6.686;2023-05-23T07:34:08;970.45;;;885.70;;
57643;SDS011;43474;46.510;6.686;2023-05-23T07:36:33;818.90;;;758.67;;
57643;SDS011;43474;46.510;6.686;2023-05-23T07:39:02;960.10;;;876.47;;
57643;SDS011;43474;46.510;6.686;2023-05-23T07:41:30;954.25;;;872.70;;
57643;SDS011;43474;46.510;6.686;2023-05-23T07:43:55;899.30;;;828.75;;
57643;SDS011;43474;46.510;6.686;2023-05-23T07:46:21;961.47;;;878.88;;
57643;SDS011;43474;46.510;6.686;2023-05-23T07:48:47;835.78;;;773.00;;
57643;SDS011;43474;46.510;6.686;2023-05-23T07:51:13;1042.38;;;943.97;;
57643;SDS011;43474;46.510;6.686;2023-05-23T07:53:38;987.72;;;902.97;;
57643;SDS011;43474;46.510;6.686;2023-05-23T07:56:04;989.47;;;900.90;;
57643;SDS011;43474;46.510;6.686;2023-05-23T07:58:31;917.17;;;841.72;;
57643;SDS011;43474;46.510;6.686;2023-05-23T08:00:56;941.95;;;864.03;;
57643;SDS011;43474;46.510;6.686;2023-05-23T08:03:22;854.63;;;790.05;;
57643;SDS011;43474;46.510;6.686;2023-05-23T08:05:48;966.22;;;884.33;;
57643;SDS011;43474;46.510;6.686;2023-05-23T08:08:14;1053.53;;;947.80;;
57643;SDS011;43474;46.510;6.686;2023-05-23T08:10:40;911.30;;;837.63;;
57643;SDS011;43474;46.510;6.686;2023-05-23T08:13:08;1058.15;;;953.05;;
57643;SDS011;43474;46.510;6.686;2023-05-23T08:15:36;987.90;;;899.55;;
57643;SDS011;43474;46.510;6.686;2023-05-23T08:18:03;945.15;;;863.28;;
57643;SDS011;43474;46.510;6.686;2023-05-23T08:20:29;966.38;;;881.85;;
57643;SDS011;43474;46.510;6.686;2023-05-23T08:22:58;908.40;;;834.63;;
57643;SDS011;43474;46.510;6.686;2023-05-23T08:25:25;1019.28;;;923.47;;
57643;SDS011;43474;46.510;6.686;2023-05-23T08:27:55;988.95;;;898.92;;
57643;SDS011;43474;46.510;6.686;2023-05-23T08:30:22;832.15;;;768.33;;
57643;SDS011;43474;46.510;6.686;2023-05-23T08:32:52;852.70;;;785.10;;
57643;SDS011;43474;46.510;6.686;2023-05-23T08:35:21;875.85;;;806.05;;
57643;SDS011;43474;46.510;6.686;2023-05-23T08:37:47;989.67;;;899.33;;
57643;SDS011;43474;46.510;6.686;2023-05-23T08:40:20;987.40;;;897.20;;
57643;SDS011;43474;46.510;6.686;2023-05-23T08:42:50;957.13;;;873.47;;
57643;SDS011;43474;46.510;6.686;2023-05-23T08:45:16;960.42;;;878.72;;
57643;SDS011;43474;46.510;6.686;2023-05-23T08:47:43;956.22;;;870.50;;
57643;SDS011;43474;46.510;6.686;2023-05-23T08:50:13;830.75;;;768.67;;
57643;SDS011;43474;46.510;6.686;2023-05-23T08:55:10;954.85;;;872.95;;
57643;SDS011;43474;46.510;6.686;2023-05-23T08:57:36;979.10;;;890.40;;
57643;SDS011;43474;46.510;6.686;2023-05-23T09:00:02;992.70;;;902.20;;
57643;SDS011;43474;46.510;6.686;2023-05-23T09:02:34;833.72;;;771.13;;
57643;SDS011;43474;46.510;6.686;2023-05-23T09:05:02;947.80;;;866.28;;
57643;SDS011;43474;46.510;6.686;2023-05-23T09:07:27;962.50;;;871.20;;
57643;SDS011;43474;46.510;6.686;2023-05-23T09:09:53;1001.83;;;905.97;;
57643;SDS011;43474;46.510;6.686;2023-05-23T09:12:19;950.63;;;868.88;;
57643;SDS011;43474;46.510;6.686;2023-05-23T09:14:48;1191.57;;;973.45;;
57643;SDS011;43474;46.510;6.686;2023-05-23T09:17:17;1000.45;;;907.78;;
57643;SDS011;43474;46.510;6.686;2023-05-23T09:19:43;986.55;;;894.72;;
57643;SDS011;43474;46.510;6.686;2023-05-23T09:22:11;929.33;;;852.17;;
57643;SDS011;43474;46.510;6.686;2023-05-23T09:24:37;973.13;;;886.50;;
57643;SDS011;43474;46.510;6.686;2023-05-23T09:27:06;895.42;;;822.15;;
57643;SDS011;43474;46.510;6.686;2023-05-23T09:29:36;906.38;;;831.20;;
57643;SDS011;43474;46.510;6.686;2023-05-23T09:32:10;853.00;;;787.63;;
57643;SDS011;43474;46.510;6.686;2023-05-23T09:37:15;993.78;;;899.70;;
57643;SDS011;43474;46.510;6.686;2023-05-23T09:39:46;991.45;;;904.78;;
57643;SDS011;43474;46.510;6.686;2023-05-23T09:42:18;967.95;;;882.58;;
57643;SDS011;43474;46.510;6.686;2023-05-23T09:44:45;930.30;;;848.97;;
57643;SDS011;43474;46.510;6.686;2023-05-23T09:47:10;914.95;;;841.35;;
57643;SDS011;43474;46.510;6.686;2023-05-23T09:49:37;1030.53;;;933.05;;
57643;SDS011;43474;46.510;6.686;2023-05-23T09:52:04;1052.70;;;948.40;;
57643;SDS011;43474;46.510;6.686;2023-05-23T09:54:30;843.47;;;777.45;;
57643;SDS011;43474;46.510;6.686;2023-05-23T09:56:58;1036.93;;;932.17;;
57643;SDS011;43474;46.510;6.686;2023-05-23T09:59:30;957.10;;;873.05;;
57643;SDS011;43474;46.510;6.686;2023-05-23T10:01:59;906.13;;;833.35;;
57643;SDS011;43474;46.510;6.686;2023-05-23T10:04:30;1029.80;;;925.50;;
57643;SDS011;43474;46.510;6.686;2023-05-23T10:07:00;984.72;;;887.35;;
57643;SDS011;43474;46.510;6.686;2023-05-23T10:09:32;987.13;;;892.10;;
57643;SDS011;43474;46.510;6.686;2023-05-23T10:14:54;1039.75;;;932.10;;
57643;SDS011;43474;46.510;6.686;2023-05-23T10:17:28;1014.30;;;916.78;;
57643;SDS011;43474;46.510;6.686;2023-05-23T10:20:14;1007.78;;;914.03;;
57643;SDS011;43474;46.510;6.686;2023-05-23T10:22:41;952.28;;;866.45;;
57643;SDS011;43474;46.510;6.686;2023-05-23T10:25:07;1024.50;;;927.92;;
57643;SDS011;43474;46.510;6.686;2023-05-23T10:27:36;1059.47;;;951.10;;
57643;SDS011;43474;46.510;6.686;2023-05-23T10:30:02;1296.38;;;999.78;;
57643;SDS011;43474;46.510;6.686;2023-05-23T10:32:28;1275.18;;;999.90;;
57643;SDS011;43474;46.510;6.686;2023-05-23T10:35:06;1090.00;;;972.42;;
57643;SDS011;43474;46.510;6.686;2023-05-23T10:43:22;1068.30;;;957.70;;
57643;SDS011;43474;46.510;6.686;2023-05-23T10:45:53;1005.47;;;907.13;;
57643;SDS011;43474;46.510;6.686;2023-05-23T10:48:20;903.22;;;826.90;;
57643;SDS011;43474;46.510;6.686;2023-05-23T10:51:21;843.05;;;776.55;;
57643;SDS011;43474;46.510;6.686;2023-05-23T10:53:52;775.33;;;720.50;;
57643;SDS011;43474;46.510;6.686;2023-05-23T10:56:19;989.88;;;898.63;;
57643;SDS011;43474;46.510;6.686;2023-05-23T10:58:52;848.88;;;781.67;;
57643;SDS011;43474;46.510;6.686;2023-05-23T11:01:19;877.00;;;804.08;;
57643;SDS011;43474;46.510;6.686;2023-05-23T11:09:10;939.85;;;859.55;;
57643;SDS011;43474;46.510;6.686;2023-05-23T11:11:53;825.08;;;763.17;;
57643;SDS011;43474;46.510;6.686;2023-05-23T11:19:37;666.90;;;624.47;;
57643;SDS011;43474;46.510;6.686;2023-05-23T11:22:03;964.13;;;875.10;;
57643;SDS011;43474;46.510;6.686;2023-05-23T11:27:25;1041.45;;;938.17;;
57643;SDS011;43474;46.510;6.686;2023-05-23T11:29:55;808.92;;;748.90;;
57643;SDS011;43474;46.510;6.686;2023-05-23T11:32:26;891.80;;;821.00;;
57643;SDS011;43474;46.510;6.686;2023-05-23T11:34:53;718.40;;;669.25;;
57643;SDS011;43474;46.510;6.686;2023-05-23T11:37:19;882.00;;;807.78;;
57643;SDS011;43474;46.510;6.686;2023-05-23T11:39:45;925.35;;;841.28;;
57643;SDS011;43474;46.510;6.686;2023-05-23T11:42:10;973.53;;;886.83;;
57643;SDS011;43474;46.510;6.686;2023-05-23T11:44:36;846.22;;;782.35;;
57643;SDS011;43474;46.510;6.686;2023-05-23T11:47:02;1013.45;;;915.70;;
57643;SDS011;43474;46.510;6.686;2023-05-23T11:49:29;1028.13;;;925.97;;
57643;SDS011;43474;46.510;6.686;2023-05-23T11:52:00;873.00;;;804.67;;
57643;SDS011;43474;46.510;6.686;2023-05-23T11:54:27;942.78;;;864.25;;
57643;SDS011;43474;46.510;6.686;2023-05-23T11:56:56;860.13;;;790.22;;
57643;SDS011;43474;46.510;6.686;2023-05-23T11:59:22;928.97;;;848.90;;
57643;SDS011;43474;46.510;6.686;2023-05-23T12:01:50;974.35;;;882.78;;
57643;SDS011;43474;46.510;6.686;2023-05-23T12:04:16;931.22;;;847.08;;
57643;SDS011;43474;46.510;6.686;2023-05-23T12:06:41;819.03;;;757.45;;
57643;SDS011;43474;46.510;6.686;2023-05-23T12:09:07;862.03;;;794.22;;
57643;SDS011;43474;46.510;6.686;2023-05-23T12:11:35;948.83;;;865.00;;
57643;SDS011;43474;46.510;6.686;2023-05-23T12:14:02;1060.43;;;949.03;;
57643;SDS011;43474;46.510;6.686;2023-05-23T12:16:34;1048.95;;;944.05;;
57643;SDS011;43474;46.510;6.686;2023-05-23T12:19:01;1043.63;;;940.63;;
57643;SDS011;43474;46.510;6.686;2023-05-23T12:21:41;761.63;;;709.55;;
57643;SDS011;43474;46.510;6.686;2023-05-23T12:24:18;842.17;;;775.05;;
57643;SDS011;43474;46.510;6.686;2023-05-23T12:26:52;1000.70;;;907.83;;
57643;SDS011;43474;46.510;6.686;2023-05-23T12:29:29;931.13;;;846.97;;
57643;SDS011;43474;46.510;6.686;2023-05-23T12:31:59;996.22;;;903.33;;
57643;SDS011;43474;46.510;6.686;2023-05-23T12:34:26;809.10;;;747.90;;
57643;SDS011;43474;46.510;6.686;2023-05-23T12:36:58;907.47;;;833.40;;
57643;SDS011;43474;46.510;6.686;2023-05-23T12:39:28;806.45;;;742.90;;
57643;SDS011;43474;46.510;6.686;2023-05-23T12:41:54;797.38;;;738.08;;
57643;SDS011;43474;46.510;6.686;2023-05-23T12:44:31;841.97;;;775.38;;
57643;SDS011;43474;46.510;6.686;2023-05-23T12:46:57;928.28;;;849.28;;
57643;SDS011;43474;46.510;6.686;2023-05-23T12:49:22;1016.45;;;915.35;;
57643;SDS011;43474;46.510;6.686;2023-05-23T12:51:48;827.50;;;762.55;;
57643;SDS011;43474;46.510;6.686;2023-05-23T12:54:13;1026.05;;;929.30;;
57643;SDS011;43474;46.510;6.686;2023-05-23T12:56:39;1015.13;;;911.60;;
57643;SDS011;43474;46.510;6.686;2023-05-23T12:59:05;947.72;;;861.15;;
57643;SDS011;43474;46.510;6.686;2023-05-23T13:01:30;786.83;;;728.42;;
57643;SDS011;43474;46.510;6.686;2023-05-23T13:03:59;874.75;;;799.53;;
57643;SDS011;43474;46.510;6.686;2023-05-23T13:06:25;840.10;;;770.88;;
57643;SDS011;43474;46.510;6.686;2023-05-23T13:08:52;1000.88;;;905.33;;
57643;SDS011;43474;46.510;6.686;2023-05-23T13:11:21;883.35;;;810.40;;
57643;SDS011;43474;46.510;6.686;2023-05-23T13:13:48;838.33;;;775.25;;
57643;SDS011;43474;46.510;6.686;2023-05-23T13:16:15;1023.38;;;924.92;;
57643;SDS011;43474;46.510;6.686;2023-05-23T13:18:40;780.35;;;722.78;;
57643;SDS011;43474;46.510;6.686;2023-05-23T13:21:06;1012.33;;;911.33;;
57643;SDS011;43474;46.510;6.686;2023-05-23T13:23:32;977.03;;;878.85;;
57643;SDS011;43474;46.510;6.686;2023-05-23T13:26:00;817.08;;;753.75;;
57643;SDS011;43474;46.510;6.686;2023-05-23T13:28:26;802.75;;;744.00;;
57643;SDS011;43474;46.510;6.686;2023-05-23T13:30:52;942.83;;;863.90;;
57643;SDS011;43474;46.510;6.686;2023-05-23T13:33:17;907.65;;;831.17;;
57643;SDS011;43474;46.510;6.686;2023-05-23T13:35:43;837.42;;;775.13;;
57643;SDS011;43474;46.510;6.686;2023-05-23T13:38:09;956.40;;;876.42;;
57643;SDS011;43474;46.510;6.686;2023-05-23T13:40:34;782.17;;;725.45;;
57643;SDS011;43474;46.510;6.686;2023-05-23T13:43:00;918.35;;;838.58;;
57643;SDS011;43474;46.510;6.686;2023-05-23T13:45:26;802.15;;;742.60;;
57643;SDS011;43474;46.510;6.686;2023-05-23T13:47:52;843.67;;;779.92;;
57643;SDS011;43474;46.510;6.686;2023-05-23T13:50:17;965.30;;;877.97;;
57643;SDS011;43474;46.510;6.686;2023-05-23T13:52:43;766.03;;;710.47;;
57643;SDS011;43474;46.510;6.686;2023-05-23T13:55:09;858.30;;;791.53;;
57643;SDS011;43474;46.510;6.686;2023-05-23T13:57:35;1008.60;;;912.40;;
57643;SDS011;43474;46.510;6.686;2023-05-23T14:00:00;843.08;;;777.75;;
57643;SDS011;43474;46.510;6.686;2023-05-23T14:02:27;925.92;;;848.25;;
57643;SDS011;43474;46.510;6.686;2023-05-23T14:04:56;927.88;;;849.00;;
57643;SDS011;43474;46.510;6.686;2023-05-23T14:07:22;994.50;;;900.88;;
57643;SDS011;43474;46.510;6.686;2023-05-23T14:09:48;873.63;;;805.78;;
57643;SDS011;43474;46.510;6.686;2023-05-23T14:12:13;775.50;;;720.30;;
57643;SDS011;43474;46.510;6.686;2023-05-23T14:14:39;1054.97;;;941.63;;
57643;SDS011;43474;46.510;6.686;2023-05-23T14:17:05;879.97;;;808.17;;
57643;SDS011;43474;46.510;6.686;2023-05-23T14:19:30;742.78;;;689.38;;
57643;SDS011;43474;46.510;6.686;2023-05-23T14:21:56;963.42;;;878.30;;
57643;SDS011;43474;46.510;6.686;2023-05-23T14:24:21;868.00;;;800.60;;
57643;SDS011;43474;46.510;6.686;2023-05-23T14:26:47;992.13;;;898.85;;
57643;SDS011;43474;46.510;6.686;2023-05-23T14:29:14;946.28;;;867.88;;
57643;SDS011;43474;46.510;6.686;2023-05-23T14:31:40;799.92;;;741.92;;